aviador You're here:

KMBL Decoded Metar

MANISTEE in MI, USA
Report Time2018-06-24 00:44:00
UTC Time2018-06-24 00:59:06
Flight Rules vfr VFR
Wind060° at 05 kt
W.Decomp.*RWY 09: 4.6 kt HW 2 kt LCW
RWY 36: 2.0 kt HW 4.6 kt RCW
W.Rank060° ranks 31
Current wind is below 060° avg. (6.5)
Visibility9999 m
Phenomena:N/A
Clouds:Few 028 Hf
Broken 043 Hf
Expected CloudBase > 800 ft AGL from Temp-Dew spread
Ceiling4,300 ft
Temp19°C (ISA +5)
Dew Point17°C (88% RH)
QNH1007 hPa
Density Alt1,696 ft
Elevation620 ft
Report Wrong Elevation
Raw Report
KMBL 240044Z AUTO 06005KT 10SM FEW028 BKN043 19/17 A2973 RMK
AO2=

Extra information for KMBL:More info

Metar Taf Metar & Taf Last 4 Metars F.Rules Stats Wind Profile Meteogram Temp Stats Airport Information Weather charts Add Link Nearby VenuesMetar ALERT Operation Metar Decoded Social comments

AIRNAV info for KMBL